Giro dell'Umbria 2011

2^ TAPPA - Giro del parco del Chiascio  - km 10

Bastia Umbra - 01/04/2011

 

Ordine d'arrivo generale maschile
Pos. PETT. COGNOME NOME ANNO SOCIETA' CAT. TEMPO
1 1 LUCCHETTI ANDREA 1975 TIFERNO RUNNERS SM-35 00:32:18
2 3 DALL'ARA MICHELE 1976 UISP ATLETICA PAVESE SM-35 00:33:00
3 10 RAGNI MARCO 1980 DREAM RUNNERS PG AMAT-M 00:33:14
4 42 BALDELLI GIUSEPPE 1968 ATLETICA AVIS PERUGIA SM-40 00:33:18
5 2 LICATA GABRIELE 1973 GUBBIO RUNNERS SM-35 00:33:19
6 51 FACCIOLO VALERIO 1968 UISP ATLETICA PAVESE SM-40 00:34:09
7 4 MONTIONI CESARE 1981 ATLETICA CAPANNE PG AMAT-M 00:34:18
8 77 ORIOLI FAUSTO 1961 ATLETICA AVIS PERUGIA SM-50 00:34:36
9 61 FIORONI MASSIMO 1966 ATLETICA AVIS PERUGIA SM-45 00:34:46
10 29 TORTOIOLI MARCO 1972 ATLETICA AVIS PERUGIA SM-35 00:34:58
11 68 BORDONI PAOLO 1963 DREAM RUNNERS PG SM-45 00:34:58
12 56 BAZZUCCHI MAURO 1965 ASPA BASTIA UMBRA PG SM-45 00:35:00
13 14 FIORUCCI NICOLÒ  1988 GUBBIO RUNNERS AMAT-M 00:35:04
14 44 CIPICIANI FABRIZIO 1968 CDP-T&RB GROUP PG SM-40 00:35:07
15 111 MASIERO ORAZIO 1952 TORTELLINI VOLTAN VE SM-55 00:35:30
16 48 PIRILLI ANDREA 1969 DREAM RUNNERS PG SM-40 00:35:34
17 26 MORANI EVIAN 1972 ASSISI RUNNERS SM-35 00:35:38
18 65 LATERZA LUIGI 1964 CDP-T&RB GROUP PG SM-45 00:35:58
19 19 BONACCI CRISTIANO 1980 SATRINI GROUP TREVI AMAT-M 00:36:15
20 15 FRATINI FRANCESCO 1981 MARATHON C. DI CASTELLO AMAT-M 00:36:17
21 11 CERQUINI ROBERTO 1979 DREAM RUNNERS PG AMAT-M 00:36:18
22 28 SOTGIA DAVID 1972 ATLETICA AVIS PERUGIA SM-35 00:36:32
23 67 POLTICCHIA ROBERTO 1964 CDP-T&RB GROUP PG SM-45 00:36:34
24 17 ANGELUCCI GABRIELE 1985 POD. WINNER FOLIGNO AMAT-M 00:36:35
25 90 PALANCA ANNIBALE 1958 RUNNERS S.GEMINI TR SM-50 00:36:59
26 16 CASALINI SERGIO 1984 POD. WINNER FOLIGNO AMAT-M 00:37:08
27 57 ROSSINI GIANFRANCO 1962 ASPA BASTIA UMBRA PG SM-45 00:37:13
28 99 D'AMICO GIOVANNI 1956 ATLETICA CINGOLI MC SM-55 00:37:17
29 76 COVARELLI MAURO 1959 ATLETICA AVIS PERUGIA SM-50 00:37:20
30 12 RAGNI FRANCESCO 1979 DREAM RUNNERS PG AMAT-M 00:37:39
31 85 PIERINI GIUSEPPE 1961 MARATHON C. DI CASTELLO SM-50 00:37:40
32 122 MANGIALASCHE ALFONSO 1951 CDP-T&RB GROUP PG SM-60 00:37:44
33 41 FAZI MAURO 1971 ATLET. TAINO G.TADINO SM-40 00:37:47
34 31 GIACOMINI MARCO 1974 GP ENDAS CESENA SM-35 00:38:02
35 32 ROSSI ROBERTO 1976 GP ENDAS CESENA SM-35 00:38:03
36 25 TOGNOLONI MATTEO 1972 A.P. PONTE FELCINO PG SM-35 00:38:11
37 96 FRENGUELLI FRANCO 1956 ATLETICA AVIS PERUGIA SM-55 00:38:13
38 60 CRICCHI STEFANO 1966 ATLETICA AVIS PERUGIA SM-45 00:38:17
39 33 TORTI MIRCO 1975 POD. WINNER FOLIGNO SM-35 00:38:22
40 92 TAZZA GIORGIO 1961 AMATORI POD. TERNI SM-50 00:38:33
41 49 PROCACCI NADIO 1970 MARATHON C. DI CASTELLO SM-40 00:38:45
42 59 BINACCI MASSIMO 1965 ATLETICA AVIS PERUGIA SM-45 00:38:47
43 83 BIANCHI WALTER 1958 DREAM RUNNERS PG SM-50 00:38:58
44 6 BATTISTELLI FABIO 1979 ASSISI RUNNERS AMAT-M 00:38:59
45 71 ARCELLI FABRIZIO 1964 ATLETICA AVIS PERUGIA SM-45 00:39:02
46 40 LAZZARINI FRANCESCO 1969 ASSISI RUNNERS SM-40 00:39:07
47 81 GENEROSO DOMENICO 1959 AVIS IN CORSA BARI SM-50 00:39:20
48 127 CARRARINI EVARISTO 1948 TIVOLI MARATHON ROMA SM-60 00:39:24
49 78 CONTI STEFANO 1960 ATLETICA CAPANNE PG SM-50 00:39:32
50 5 MARSILI EROS 1982 ATLETICA CAPANNE PG AMAT-M 00:40:02
51 100 RIGHINI SOLERTE 1954 ATLETICA DLF RIMINI SM-55 00:40:03
52 62 COVARELLI GIANCARLO 1965 ATLETICA CAPANNE PG SM-45 00:40:05
53 105 NATALICCHI CESARE 1956 DREAM RUNNERS PG SM-55 00:40:10
54 89 COGORNI SAURO 1960 PODISTICA AVIS DERUTA SM-50 00:40:12
55 18 LEPRI GIANMARCO 1978 SATRINI GROUP TREVI AMAT-M 00:40:32
56 101 BRUTTI LUCIANO 1954 CDP-T&RB GROUP PG SM-55 00:40:58
57 9 CAVIGLIONI PATRIZIO 1980 CDP-T&RB GROUP PG AMAT-M 00:41:13
58 134 TOGNOLONI ITALO 1945 ATLETICA AVIS PERUGIA SM-65 00:41:34
59 45 FALASCHI DANIELE 1971 CDP-T&RB GROUP PG SM-40 00:41:43
60 30 DE ROSA RAFFAELE 1972 ATLETICA CAPANNE PG SM-35 00:41:45
61 52 CERBINI STEFANO 1970 ATLETICA AVIS PERUGIA SM-40 00:41:59
62 119 PUCCIO FRANCESCO 1949 ATLETICA PAVESE SM-60 00:42:19
63 117 CARBONINI RUGGERO 1947 ATLETICA CAPANNE PG SM-60 00:42:29
64 133 DENTINI MAURO 1945 ATLETICA AVIS PERUGIA SM-65 00:42:32
65 82 VALENTE NICOLA GIUSEPPE 1960 AVIS IN CORSA BARI SM-50 00:42:35
66 116 PASCUCCI LEANDRO 1951 ATLETICA ASAL FOLIGNO SM-60 00:42:37
67 108 MAZZOLI ANDREA 1955 LOLLI AUTO BOLOGNA SM-55 00:42:56
68 50 VECCHINI  SERGIO 1970 MARATHON C. DI CASTELLO SM-40 00:43:18
69 84 PERIN TIZIANO 1958 IDEALDOOR S.BIAGIO TV SM-50 00:43:24
70 95 PIERELLI VINICIO 1956 ATLET. TAINO G.TADINO SM-55 00:43:31
71 124 BRODI VERARDO 1947 MARATHON C. DI CASTELLO SM-60 00:43:33
72 145 MENGHI NINO 1938 ATL. MAMELI RAVENNA SM-70 00:43:38
73 75 CANAPARI FRANCESCO 1958 ATLETICA AVIS PERUGIA SM-50 00:43:56
74 80 SANTAGÀ  ANTONIO 1960 ATLETICA CAPANNE PG SM-50 00:43:56
75 43 SFONDALMONDO MASSIMILIANO 1971 ATLETICA AVIS PERUGIA SM-40 00:43:58
76 120 CAPECI ANTONIO 1950 AVIS SPINETOLE AP SM-60 00:44:14
77 64 CARDAIOLI DANILO 1963 ATLETICA IL COLLE PG SM-45 00:44:16
78 58 POMPEI GIANCARLO 1964 ATLET. TAINO G.TADINO SM-45 00:44:17
79 126 FAGOTTI MARCO 1950 POD. WINNER FOLIGNO SM-60 00:44:24
80 140 CLEMENTE UGO 1944 POD. CANAVESE 2005 SM-65 00:44:24
81 66 LAZZARI  SERGIO 1962 CDP-T&RB GROUP PG SM-45 00:44:40
82 151 RICCI FRANCESCO 1939 VOLUMNIA SERICAP PG SM-70 00:44:44
83 139 GIRELLI LUCIO 1946 MARATHON C. DI CASTELLO SM-65 00:45:07
84 128 BALDASSARI LUCIANO 1948 UISP FAENZA SM-60 00:45:11
85 109 RICCI GIUSEPPE 1954 POD. LINO SPAGNOLI PG SM-55 00:45:22
86 87 CAMERUCCI TIBERIO 1960 POD. WINNER FOLIGNO SM-50 00:45:32
87 103 LUCA LUIGI 1954 CITTANOVA MONTEVEGLIO SM-55 00:46:02
88 136 ORTICA ADRIANO 1946 ATLETICA IL COLLE PG SM-65 00:46:02
89 88 VERDINELLI FABIO 1958 POD. WINNER FOLIGNO SM-50 00:46:08
90 107 BORTOLAN RENZO 1953 IDEALDOOR S.BIAGIO TV SM-55 00:46:40
91 123 GASPARETTO LUCIANO 1947 GP MONTEBELLUNA TV SM-60 00:46:42
92 137 INZERILLO GIOVANNI 1946 ATLETICA INTESA MI SM-65 00:47:03
93 97 RONDINI STEFANO 1954 ATLETICA AVIS PERUGIA SM-55 00:47:05
94 8 CHIOCCI ALESSIO 1981 CDP-T&RB GROUP PG AMAT-M 00:47:06
95 86 CARLONI PAOLO 1957 POD. LINO SPAGNOLI PG SM-50 00:47:06
96 27 MENGHI FRANCESCO 1972 ATL. MAMELI RAVENNA SM-35 00:47:07
97 118 PARADISI FRANCO 1950 ATLETICA CAPANNE PG SM-60 00:47:25
98 115 RIZZO ODONE 1949 ASSINDUSTRIA ROVIGO SM-60 00:47:51
99 91 BOTTOLONI RAFFAELE  1960 VOLUMNIA SERICAP PG SM-50 00:48:22
100 135 MORONI BRUNO 1942 ATLETICA CAPANNE PG SM-65 00:48:28
101 63 PICCINI FRANCO 1958 ATLETICA CAPANNE PG SM-50 00:48:41
102 104 CASTRABERTE FAUSTO 1955 DREAM RUNNERS PG SM-55 00:48:44
103 141 CEPPI AGOSTINO 1944 POD. WINNER FOLIGNO SM-65 00:49:02
104 149 CARREA SERGIO 1938 EDERA ATLETICA FORLÌ  SM-70 00:49:56
105 131 MANCINELLI SERGIO 1945 ASSI GIGLIO ROSSO FI SM-65 00:50:12
106 7 FARES GIANNI 1979 AVIS SPINETOLE AP AMAT-M 00:50:53
107 79 ORIOLI SERGIO 1958 ATLETICA CAPANNE PG SM-50 00:52:15
108 130 NATALI NOVELLO 1944 ASPA BASTIA UMBRA PG SM-65 00:55:31
109 125 POCCIONI BERNARDO 1951 MARATHON C. DI CASTELLO SM-60 00:58:05
110 155 MANCINI GIUSEPPE 1936 AVIS SPINETOLE AP SM-75 00:59:12
111 55 BRIZIARELLI SAURO 1962 A.P. PONTE FELCINO PG SM-45 01:00:51
112 147 CIAMPI VITTORIO 1940 CDP-T&RB GROUP PG SM-70 01:02:55
113 142 BRUGNONI GIANFRANCO 1944 VOLUMNIA SERICAP PG SM-65 01:03:05
114 138 CUCCHETTI FABRIZIO 1946 ATLETICA PAVESE SM-65 01:03:27
115 156 BRUNETTI BENITO 1934 VOLUMNIA SERICAP PG SM-75 01:03:27
116 69 CUCCHIARINI SERGIO 1964 MARATHON C. DI CASTELLO SM-45 01:09:58
117 146 GIANNINI ROBERTO 1939 ATLETICA AVIS PERUGIA SM-70 01:11:56
  13 PIERINI ROBERTO 1987 GS FILIPPIDE C.DEL LAGO AMAT-M  
  47 MENCONI ANTONELLO 1967 CDP-T&RB GROUP PG SM-40  
  70 BOTTI LEONARDO 1962 POD. WINNER FOLIGNO SM-45  
  106 CUCCHI FLORIANO 1952 GP ENDAS CESENA SM-55  
  110 NEGRONI SERGIO 1953 POD. WINNER FOLIGNO SM-55  
  132 CARPENTIERI MARIO 1943 ASSINDUSTRIA ROVIGO SM-65  
Ordine d'arrivo generale maschile
Pos. PETT. COGNOME NOME ANNO SOCIETA' CAT. TEMPO
1 167 NANU ANA 1973 GS GABBI BOLOGNA SF-35 00:40:02
2 175 DRAOLI MARIA CRISTINA 1964 ASSISI RUNNERS SF-45 00:40:36
3 168 GATTA BARBARA 1975 POD. WINNER FOLIGNO SF-35 00:41:55
4 176 PALOMBI ROBERTA 1963 ATLETICA AVIS PERUGIA SF-45 00:42:36
5 177 BASIGLI IVANA 1962 ATLETICA CAPANNE PG SF-45 00:43:16
6 185 LAMBERTINI PAOLA 1957 ATLETICA  85 FAENZA SF-50 00:43:23
7 161 SILEI LAURA 1977 ATLETICA CAPANNE PG AMAT-F 00:44:00
8 162 PIASTRA LORENA 1977 CDP-T&RB GROUP PG AMAT-F 00:44:00
9 160 RASTELLI VALERIA 1980 ATLETICA CAPANNE PG AMAT-F 00:45:21
10 165 MONTANINI MARIANNA 1972 ATLETICA AVIS PERUGIA SF-35 00:46:21
11 172 SORCI MARIA GABRIELLA 1968 POD. WINNER FOLIGNO SF-40 00:46:44
12 194 MATTIOLO FRANCESCA 1948 ATLETICA PAVESE SF-60 00:46:48
13 181 BURANI MONIA 1965 PODISTICA AVIS DERUTA SF-45 00:47:09
14 187 CAMPIGOTTO MARIA TERESA 1961 IDEALDOOR S.BIAGIO TV SF-50 00:48:06
15 171 MASSETTI MONIA 1970 POD. LINO SPAGNOLI PG SF-40 00:49:12
16 198 CAIOTTI EGLE 1951 MARATHON C. DI CASTELLO SF-60 00:50:07
17 186 BISCARINI PAOLA 1957 ATLETICA AVIS PERUGIA SF-50 00:51:02
18 174 VAGNARELLI REMA 1964 ASPA BASTIA UMBRA PG SF-45 00:52:02
19 190 CATTELAN GRAZIANA 1954 IDEALDOOR S.BIAGIO TV SF-55 00:52:29
20 191 RIGHETTI  ROSANNA 1955 ATLETICA AVIS PERUGIA SF-55 00:53:02
21 179 MACULAN CARLA 1964 CDP-T&RB GROUP PG SF-45 00:55:04
22 189 BOMBARDIERI MIRKA 1952 ASSINDUSTRIA ROVIGO SF-55 00:56:26
23 197 MARCOLIN NORINA 1950 GP MONTEBELLUNA TV SF-60 00:56:53
24 196 STRINGO IRENE 1942 ATLETICA PAVESE SF-60 00:57:10
25 184 ANASTASI  LIDJE 1957 ATLET. TAINO G.TADINO SF-50 00:59:12
26 192 SPACCINI MARCELLA 1948 ATLETICA AVIS PERUGIA SF-60 00:59:12
27 193 INGI MARIAPIA 1941 ATLETICA AVIS PERUGIA SF-60 00:59:58
28 180 GIORGETTI CLAUDIA 1966 DREAM RUNNERS PG SF-45 01:02:35
29 166 KREJCI  SUSANNE 1972 ATLETICA CAPANNE PG SF-35 01:02:39
  163 GIRELLI LUCIA 1978 MARATHON C. DI CASTELLO AMAT-F  
  164 GARINEI PAOLA 1974 ATLETICA AVIS PERUGIA SF-35  
  178 FALCHETTI ANNA MARIA 1966 CDP-T&RB GROUP PG SF-45  

------------------------------

------------------------------

------------------------------